LiveATC.Net - Listen to live air traffic control over the Internet!

ICAO: YPJT  IATA: JAD   Airport: Perth Jandakot Airport
City: Perth   State/Province: Western Australia
Country: Australia   Continent: Oceania
YPJT METAR Weather: YPJT 230800Z AUTO 28009KT 9999 // NCD 28/17 Q1013 RF00.0/000.0
YPJT Flight Activity (FlightAware)
YPJT Webcam:  (Airport Webcams) 
YPJT Gnd/Twr/Radar
Feed Status: UP   Listeners: 3
Listen right in your browser - requires Flash (in browser, requires Flash)
Click here to listen with your own player (launches your MP3 player)
YPJT Gnd/Twr/Radar Audio Archives
Jandakot Ground124.300
Jandakot Tower119.400
Jandakot Tower/CTAF118.100
Perth Radar135.250

Jandakot Airport web page


Unauthorized use prohibited. See Terms of Service

Find LiveATC Audio Streams

Airport/ARTCC Code

Frequency Search
(e.g., 124.400, 128.75)
Site-wide search

Browse LiveATC Feeds
LiveATC Coverage Map
Top 50 LiveATC Feeds
Bad Weather Areas

Offer a LiveATC Feed
Press Inquiries

LiveATC on iPhone
LiveATC on Android

Windows Phone
Windows 8/10

LiveATC Mobile
(Mobile browser)

ATC Audio Archives
Interesting Recordings

LiveATC Forums

Home Page
Make a Donation
Terms of Use
Privacy Policy

Canadian Air Freqs


FAA Airport Status
Nat'l Airspace Status
Arrival Demand Charts

Server Software By: